sensor_id;sensor_type;location;lat;lon;timestamp;temperature;humidity
10662;DHT22;5379;51.034;7.006;2024-02-21T00:05:20;11.90;99.90
10662;DHT22;5379;51.034;7.006;2024-02-21T00:10:14;11.90;99.90
10662;DHT22;5379;51.034;7.006;2024-02-21T00:12:42;11.90;99.90
10662;DHT22;5379;51.034;7.006;2024-02-21T00:15:09;11.90;99.90
10662;DHT22;5379;51.034;7.006;2024-02-21T00:17:36;11.90;99.90
10662;DHT22;5379;51.034;7.006;2024-02-21T00:20:04;11.90;99.90
10662;DHT22;5379;51.034;7.006;2024-02-21T00:22:31;11.90;99.90
10662;DHT22;5379;51.034;7.006;2024-02-21T00:24:59;11.90;99.90
10662;DHT22;5379;51.034;7.006;2024-02-21T00:27:25;11.90;99.90
10662;DHT22;5379;51.034;7.006;2024-02-21T00:29:53;12.00;99.90
10662;DHT22;5379;51.034;7.006;2024-02-21T00:32:20;12.00;99.90
10662;DHT22;5379;51.034;7.006;2024-02-21T00:34:47;12.10;99.90
10662;DHT22;5379;51.034;7.006;2024-02-21T00:37:14;12.00;99.90
10662;DHT22;5379;51.034;7.006;2024-02-21T00:39:41;12.10;99.90
10662;DHT22;5379;51.034;7.006;2024-02-21T00:42:08;12.30;99.90
10662;DHT22;5379;51.034;7.006;2024-02-21T00:44:34;12.30;99.90
10662;DHT22;5379;51.034;7.006;2024-02-21T00:47:02;12.20;99.90
10662;DHT22;5379;51.034;7.006;2024-02-21T00:49:29;12.20;99.90
10662;DHT22;5379;51.034;7.006;2024-02-21T00:51:56;12.30;99.90
10662;DHT22;5379;51.034;7.006;2024-02-21T00:54:23;12.40;99.90
10662;DHT22;5379;51.034;7.006;2024-02-21T00:56:49;12.40;99.90
10662;DHT22;5379;51.034;7.006;2024-02-21T00:59:16;12.30;99.90
10662;DHT22;5379;51.034;7.006;2024-02-21T05:31:24;11.10;99.90
10662;DHT22;5379;51.034;7.006;2024-02-21T05:33:50;10.90;99.90
10662;DHT22;5379;51.034;7.006;2024-02-21T05:36:17;11.00;99.90
10662;DHT22;5379;51.034;7.006;2024-02-21T05:38:44;10.90;99.90
10662;DHT22;5379;51.034;7.006;2024-02-21T05:41:11;10.90;99.90
10662;DHT22;5379;51.034;7.006;2024-02-21T05:43:37;11.00;99.90
10662;DHT22;5379;51.034;7.006;2024-02-21T05:46:04;11.00;99.90
10662;DHT22;5379;51.034;7.006;2024-02-21T05:48:32;11.10;99.90
10662;DHT22;5379;51.034;7.006;2024-02-21T05:51:02;11.10;99.90
10662;DHT22;5379;51.034;7.006;2024-02-21T05:53:29;11.10;99.90
10662;DHT22;5379;51.034;7.006;2024-02-21T05:55:56;11.10;99.90
10662;DHT22;5379;51.034;7.006;2024-02-21T05:58:22;11.10;99.90
10662;DHT22;5379;51.034;7.006;2024-02-21T06:00:49;11.00;99.90
10662;DHT22;5379;51.034;7.006;2024-02-21T06:03:16;10.90;99.90
10662;DHT22;5379;51.034;7.006;2024-02-21T06:05:44;10.90;99.90
10662;DHT22;5379;51.034;7.006;2024-02-21T06:08:11;10.90;99.90
10662;DHT22;5379;51.034;7.006;2024-02-21T06:10:38;11.00;99.90
10662;DHT22;5379;51.034;7.006;2024-02-21T06:13:05;11.00;99.90
10662;DHT22;5379;51.034;7.006;2024-02-21T06:15:31;11.20;99.90
10662;DHT22;5379;51.034;7.006;2024-02-21T06:17:58;11.20;99.90
10662;DHT22;5379;51.034;7.006;2024-02-21T06:20:25;11.40;99.90
10662;DHT22;5379;51.034;7.006;2024-02-21T06:22:53;11.50;99.90
10662;DHT22;5379;51.034;7.006;2024-02-21T06:25:20;11.60;99.90
10662;DHT22;5379;51.034;7.006;2024-02-21T06:27:47;11.80;99.90
10662;DHT22;5379;51.034;7.006;2024-02-21T06:30:14;11.70;99.90
10662;DHT22;5379;51.034;7.006;2024-02-21T06:32:41;11.70;99.90
10662;DHT22;5379;51.034;7.006;2024-02-21T06:35:08;11.80;99.90
10662;DHT22;5379;51.034;7.006;2024-02-21T06:37:34;11.60;99.90
10662;DHT22;5379;51.034;7.006;2024-02-21T06:40:04;11.60;99.90
10662;DHT22;5379;51.034;7.006;2024-02-21T06:42:31;11.70;99.90
10662;DHT22;5379;51.034;7.006;2024-02-21T06:44:57;11.70;99.90
10662;DHT22;5379;51.034;7.006;2024-02-21T06:47:24;11.70;99.90
10662;DHT22;5379;51.034;7.006;2024-02-21T06:49:51;11.60;99.90
10662;DHT22;5379;51.034;7.006;2024-02-21T06:52:18;11.60;99.90
10662;DHT22;5379;51.034;7.006;2024-02-21T06:54:46;11.60;99.90
10662;DHT22;5379;51.034;7.006;2024-02-21T06:57:14;11.60;99.90
10662;DHT22;5379;51.034;7.006;2024-02-21T06:59:42;11.70;99.90
10662;DHT22;5379;51.034;7.006;2024-02-21T07:02:09;11.60;99.90
10662;DHT22;5379;51.034;7.006;2024-02-21T07:04:36;11.60;99.90
10662;DHT22;5379;51.034;7.006;2024-02-21T07:07:03;11.60;99.90
10662;DHT22;5379;51.034;7.006;2024-02-21T07:09:30;11.60;99.90
10662;DHT22;5379;51.034;7.006;2024-02-21T07:11:57;11.50;99.90
10662;DHT22;5379;51.034;7.006;2024-02-21T07:14:28;11.50;99.90
10662;DHT22;5379;51.034;7.006;2024-02-21T07:16:55;11.40;99.90
10662;DHT22;5379;51.034;7.006;2024-02-21T07:19:22;11.40;99.90
10662;DHT22;5379;51.034;7.006;2024-02-21T07:21:49;11.40;99.90
10662;DHT22;5379;51.034;7.006;2024-02-21T07:24:16;11.40;99.90
10662;DHT22;5379;51.034;7.006;2024-02-21T07:26:43;11.40;99.90
10662;DHT22;5379;51.034;7.006;2024-02-21T07:29:10;11.40;99.90
10662;DHT22;5379;51.034;7.006;2024-02-21T07:31:42;11.30;99.90
10662;DHT22;5379;51.034;7.006;2024-02-21T07:34:09;11.30;99.90
10662;DHT22;5379;51.034;7.006;2024-02-21T07:36:36;12.50;99.90
10662;DHT22;5379;51.034;7.006;2024-02-21T07:39:04;11.30;99.90
10662;DHT22;5379;51.034;7.006;2024-02-21T07:41:31;11.20;99.90
10662;DHT22;5379;51.034;7.006;2024-02-21T07:43:59;11.20;99.90
10662;DHT22;5379;51.034;7.006;2024-02-21T07:46:26;11.30;99.90
10662;DHT22;5379;51.034;7.006;2024-02-21T07:48:54;11.30;99.90
10662;DHT22;5379;51.034;7.006;2024-02-21T07:51:21;11.40;99.90
10662;DHT22;5379;51.034;7.006;2024-02-21T07:53:47;11.30;99.90
10662;DHT22;5379;51.034;7.006;2024-02-21T07:56:15;11.40;99.90
10662;DHT22;5379;51.034;7.006;2024-02-21T07:58:42;11.50;99.90
10662;DHT22;5379;51.034;7.006;2024-02-21T08:01:09;11.30;99.90
10662;DHT22;5379;51.034;7.006;2024-02-21T08:03:37;11.80;99.90
10662;DHT22;5379;51.034;7.006;2024-02-21T08:06:05;11.40;99.90
10662;DHT22;5379;51.034;7.006;2024-02-21T08:08:32;11.30;99.90
10662;DHT22;5379;51.034;7.006;2024-02-21T08:10:59;11.40;99.90
10662;DHT22;5379;51.034;7.006;2024-02-21T08:13:26;11.40;99.90
10662;DHT22;5379;51.034;7.006;2024-02-21T08:15:54;11.40;99.90
10662;DHT22;5379;51.034;7.006;2024-02-21T08:18:21;11.30;99.90
10662;DHT22;5379;51.034;7.006;2024-02-21T08:20:47;11.30;99.90
10662;DHT22;5379;51.034;7.006;2024-02-21T08:23:18;11.30;99.90
10662;DHT22;5379;51.034;7.006;2024-02-21T08:25:45;11.50;99.90
10662;DHT22;5379;51.034;7.006;2024-02-21T08:28:13;11.30;99.90
10662;DHT22;5379;51.034;7.006;2024-02-21T08:30:40;11.70;99.90
10662;DHT22;5379;51.034;7.006;2024-02-21T08:33:09;11.60;99.90
10662;DHT22;5379;51.034;7.006;2024-02-21T08:35:36;12.10;99.90
10662;DHT22;5379;51.034;7.006;2024-02-21T08:38:03;12.70;99.90
10662;DHT22;5379;51.034;7.006;2024-02-21T08:40:31;13.60;99.90
10662;DHT22;5379;51.034;7.006;2024-02-21T08:43:00;14.00;99.90
10662;DHT22;5379;51.034;7.006;2024-02-21T08:45:27;14.20;99.90
10662;DHT22;5379;51.034;7.006;2024-02-21T08:47:54;14.30;99.90
10662;DHT22;5379;51.034;7.006;2024-02-21T08:50:21;14.40;99.90
10662;DHT22;5379;51.034;7.006;2024-02-21T08:52:47;14.30;99.90
10662;DHT22;5379;51.034;7.006;2024-02-21T08:55:14;14.30;99.90
10662;DHT22;5379;51.034;7.006;2024-02-21T08:57:42;14.30;99.90
10662;DHT22;5379;51.034;7.006;2024-02-21T09:00:10;14.20;99.90
10662;DHT22;5379;51.034;7.006;2024-02-21T09:02:40;14.20;99.90
10662;DHT22;5379;51.034;7.006;2024-02-21T09:05:08;14.20;99.90
10662;DHT22;5379;51.034;7.006;2024-02-21T09:07:35;14.20;99.90
10662;DHT22;5379;51.034;7.006;2024-02-21T09:10:02;14.80;99.90
10662;DHT22;5379;51.034;7.006;2024-02-21T09:12:30;15.90;99.90
10662;DHT22;5379;51.034;7.006;2024-02-21T09:14:59;16.00;99.90
10662;DHT22;5379;51.034;7.006;2024-02-21T09:17:26;14.30;99.90
10662;DHT22;5379;51.034;7.006;2024-02-21T09:19:54;13.20;99.90
10662;DHT22;5379;51.034;7.006;2024-02-21T09:22:24;12.40;99.90
10662;DHT22;5379;51.034;7.006;2024-02-21T09:24:51;12.60;99.90
10662;DHT22;5379;51.034;7.006;2024-02-21T09:27:18;12.20;99.90
10662;DHT22;5379;51.034;7.006;2024-02-21T09:29:45;11.80;99.90
10662;DHT22;5379;51.034;7.006;2024-02-21T09:32:13;12.00;99.90
10662;DHT22;5379;51.034;7.006;2024-02-21T09:34:40;12.00;99.90
10662;DHT22;5379;51.034;7.006;2024-02-21T09:37:07;12.10;99.90
10662;DHT22;5379;51.034;7.006;2024-02-21T09:39:34;11.90;99.90
10662;DHT22;5379;51.034;7.006;2024-02-21T09:42:06;12.00;99.90
10662;DHT22;5379;51.034;7.006;2024-02-21T09:44:36;12.00;99.90
10662;DHT22;5379;51.034;7.006;2024-02-21T09:47:07;13.10;99.90
10662;DHT22;5379;51.034;7.006;2024-02-21T09:49:40;12.10;99.90
10662;DHT22;5379;51.034;7.006;2024-02-21T09:52:09;12.40;99.90
10662;DHT22;5379;51.034;7.006;2024-02-21T09:54:39;12.40;99.90
10662;DHT22;5379;51.034;7.006;2024-02-21T09:57:10;12.40;99.90
10662;DHT22;5379;51.034;7.006;2024-02-21T09:59:37;12.40;99.90
10662;DHT22;5379;51.034;7.006;2024-02-21T10:02:04;12.50;99.90
10662;DHT22;5379;51.034;7.006;2024-02-21T10:04:32;12.60;99.90
10662;DHT22;5379;51.034;7.006;2024-02-21T10:07:00;12.60;99.90
10662;DHT22;5379;51.034;7.006;2024-02-21T10:09:28;13.20;99.90
10662;DHT22;5379;51.034;7.006;2024-02-21T10:11:55;13.00;99.90
10662;DHT22;5379;51.034;7.006;2024-02-21T10:14:22;12.60;99.90
10662;DHT22;5379;51.034;7.006;2024-02-21T10:16:58;12.60;99.90
10662;DHT22;5379;51.034;7.006;2024-02-21T10:19:25;12.60;99.90
10662;DHT22;5379;51.034;7.006;2024-02-21T10:22:01;12.60;99.90
10662;DHT22;5379;51.034;7.006;2024-02-21T10:24:29;12.70;99.90
10662;DHT22;5379;51.034;7.006;2024-02-21T10:27:01;12.70;99.90
10662;DHT22;5379;51.034;7.006;2024-02-21T10:29:29;13.30;99.90
10662;DHT22;5379;51.034;7.006;2024-02-21T10:32:04;12.70;99.90
10662;DHT22;5379;51.034;7.006;2024-02-21T10:34:31;12.80;99.90
10662;DHT22;5379;51.034;7.006;2024-02-21T10:37:01;12.80;99.90
10662;DHT22;5379;51.034;7.006;2024-02-21T10:39:29;12.70;99.90
10662;DHT22;5379;51.034;7.006;2024-02-21T10:41:59;12.80;99.90
10662;DHT22;5379;51.034;7.006;2024-02-21T10:44:28;12.70;99.90
10662;DHT22;5379;51.034;7.006;2024-02-21T10:46:56;13.00;99.90
10662;DHT22;5379;51.034;7.006;2024-02-21T10:49:24;13.10;99.90
10662;DHT22;5379;51.034;7.006;2024-02-21T10:51:55;13.30;99.90
10662;DHT22;5379;51.034;7.006;2024-02-21T10:54:36;13.50;99.90
10662;DHT22;5379;51.034;7.006;2024-02-21T10:57:05;13.40;99.90
10662;DHT22;5379;51.034;7.006;2024-02-21T10:59:34;13.70;99.90
10662;DHT22;5379;51.034;7.006;2024-02-21T11:02:01;14.60;99.90
10662;DHT22;5379;51.034;7.006;2024-02-21T11:04:28;14.90;99.90
10662;DHT22;5379;51.034;7.006;2024-02-21T11:06:57;14.60;99.90
10662;DHT22;5379;51.034;7.006;2024-02-21T11:09:31;13.90;99.90
10662;DHT22;5379;51.034;7.006;2024-02-21T11:11:59;13.60;99.90
10662;DHT22;5379;51.034;7.006;2024-02-21T11:14:27;13.80;99.90
10662;DHT22;5379;51.034;7.006;2024-02-21T11:16:54;13.90;99.90
10662;DHT22;5379;51.034;7.006;2024-02-21T11:19:23;13.80;99.90
10662;DHT22;5379;51.034;7.006;2024-02-21T11:21:52;13.70;99.90
10662;DHT22;5379;51.034;7.006;2024-02-21T11:24:27;14.60;99.90
10662;DHT22;5379;51.034;7.006;2024-02-21T11:29:23;13.70;99.90
10662;DHT22;5379;51.034;7.006;2024-02-21T11:31:51;13.50;99.90
10662;DHT22;5379;51.034;7.006;2024-02-21T11:34:19;13.40;99.90
10662;DHT22;5379;51.034;7.006;2024-02-21T11:36:50;13.50;99.90
10662;DHT22;5379;51.034;7.006;2024-02-21T11:39:21;13.60;99.90
10662;DHT22;5379;51.034;7.006;2024-02-21T11:42:01;13.60;99.90
10662;DHT22;5379;51.034;7.006;2024-02-21T11:44:27;13.80;99.90
10662;DHT22;5379;51.034;7.006;2024-02-21T11:46:54;13.60;99.90
10662;DHT22;5379;51.034;7.006;2024-02-21T11:49:22;13.60;99.90
10662;DHT22;5379;51.034;7.006;2024-02-21T11:51:58;13.50;99.90
10662;DHT22;5379;51.034;7.006;2024-02-21T11:54:25;14.20;99.90
10662;DHT22;5379;51.034;7.006;2024-02-21T11:56:52;13.40;99.90
10662;DHT22;5379;51.034;7.006;2024-02-21T11:59:20;13.30;99.90
10662;DHT22;5379;51.034;7.006;2024-02-21T12:01:48;13.30;99.90
10662;DHT22;5379;51.034;7.006;2024-02-21T12:04:15;13.40;99.90
10662;DHT22;5379;51.034;7.006;2024-02-21T12:06:45;13.60;99.90
10662;DHT22;5379;51.034;7.006;2024-02-21T12:09:14;13.50;99.90
10662;DHT22;5379;51.034;7.006;2024-02-21T12:11:40;13.70;99.90
10662;DHT22;5379;51.034;7.006;2024-02-21T12:14:07;13.70;99.90
10662;DHT22;5379;51.034;7.006;2024-02-21T12:16:36;13.80;99.90
10662;DHT22;5379;51.034;7.006;2024-02-21T12:19:03;13.80;99.90
10662;DHT22;5379;51.034;7.006;2024-02-21T12:21:31;13.90;99.90
10662;DHT22;5379;51.034;7.006;2024-02-21T12:23:58;14.20;99.90
10662;DHT22;5379;51.034;7.006;2024-02-21T12:26:25;15.10;99.90
10662;DHT22;5379;51.034;7.006;2024-02-21T12:28:53;16.60;99.90
10662;DHT22;5379;51.034;7.006;2024-02-21T12:31:21;17.40;99.90
10662;DHT22;5379;51.034;7.006;2024-02-21T12:33:49;18.30;99.90
10662;DHT22;5379;51.034;7.006;2024-02-21T12:36:17;18.50;99.90
10662;DHT22;5379;51.034;7.006;2024-02-21T12:38:44;19.00;99.90
10662;DHT22;5379;51.034;7.006;2024-02-21T12:41:12;19.00;99.90
10662;DHT22;5379;51.034;7.006;2024-02-21T12:43:38;19.30;99.90
10662;DHT22;5379;51.034;7.006;2024-02-21T12:46:05;18.00;98.20
10662;DHT22;5379;51.034;7.006;2024-02-21T12:48:32;16.20;99.90
10662;DHT22;5379;51.034;7.006;2024-02-21T12:51:01;15.40;99.90
10662;DHT22;5379;51.034;7.006;2024-02-21T12:53:28;15.10;99.90
10662;DHT22;5379;51.034;7.006;2024-02-21T12:55:55;15.00;99.90
10662;DHT22;5379;51.034;7.006;2024-02-21T12:58:22;15.00;99.90
10662;DHT22;5379;51.034;7.006;2024-02-21T13:00:49;15.30;99.90
10662;DHT22;5379;51.034;7.006;2024-02-21T13:03:16;15.30;99.90
10662;DHT22;5379;51.034;7.006;2024-02-21T13:05:43;14.90;99.90
10662;DHT22;5379;51.034;7.006;2024-02-21T13:08:11;14.50;99.90
10662;DHT22;5379;51.034;7.006;2024-02-21T13:10:38;14.10;99.90
10662;DHT22;5379;51.034;7.006;2024-02-21T13:13:05;14.20;99.90
10662;DHT22;5379;51.034;7.006;2024-02-21T13:15:32;14.50;99.90
10662;DHT22;5379;51.034;7.006;2024-02-21T13:17:58;14.40;99.90
10662;DHT22;5379;51.034;7.006;2024-02-21T13:20:25;14.10;99.90
10662;DHT22;5379;51.034;7.006;2024-02-21T13:22:53;14.10;99.90
10662;DHT22;5379;51.034;7.006;2024-02-21T13:25:22;14.70;99.90
10662;DHT22;5379;51.034;7.006;2024-02-21T13:27:48;13.90;99.90
10662;DHT22;5379;51.034;7.006;2024-02-21T13:30:15;13.80;99.90
10662;DHT22;5379;51.034;7.006;2024-02-21T13:32:43;13.90;99.90
10662;DHT22;5379;51.034;7.006;2024-02-21T13:35:11;14.00;99.90
10662;DHT22;5379;51.034;7.006;2024-02-21T13:37:38;14.10;99.90
10662;DHT22;5379;51.034;7.006;2024-02-21T13:40:06;14.10;99.90
10662;DHT22;5379;51.034;7.006;2024-02-21T13:42:36;14.10;99.90
10662;DHT22;5379;51.034;7.006;2024-02-21T13:45:04;14.20;99.90
10662;DHT22;5379;51.034;7.006;2024-02-21T13:47:31;14.10;99.90
10662;DHT22;5379;51.034;7.006;2024-02-21T13:49:58;14.40;99.90
10662;DHT22;5379;51.034;7.006;2024-02-21T13:52:25;14.80;99.90
10662;DHT22;5379;51.034;7.006;2024-02-21T13:54:52;14.60;99.90
10662;DHT22;5379;51.034;7.006;2024-02-21T13:57:19;14.50;99.90
10662;DHT22;5379;51.034;7.006;2024-02-21T13:59:47;14.40;99.90
10662;DHT22;5379;51.034;7.006;2024-02-21T14:02:14;14.50;99.90
10662;DHT22;5379;51.034;7.006;2024-02-21T14:04:41;14.90;99.90
10662;DHT22;5379;51.034;7.006;2024-02-21T14:07:08;15.10;99.90
10662;DHT22;5379;51.034;7.006;2024-02-21T14:09:35;14.60;99.90
10662;DHT22;5379;51.034;7.006;2024-02-21T14:12:02;14.50;99.90
10662;DHT22;5379;51.034;7.006;2024-02-21T14:14:29;14.50;99.90
10662;DHT22;5379;51.034;7.006;2024-02-21T14:16:58;14.50;99.90
10662;DHT22;5379;51.034;7.006;2024-02-21T14:19:25;14.40;99.90
10662;DHT22;5379;51.034;7.006;2024-02-21T14:21:52;14.60;99.90
10662;DHT22;5379;51.034;7.006;2024-02-21T14:24:19;14.40;99.90
10662;DHT22;5379;51.034;7.006;2024-02-21T14:26:46;14.50;99.90
10662;DHT22;5379;51.034;7.006;2024-02-21T14:29:14;14.90;99.90
10662;DHT22;5379;51.034;7.006;2024-02-21T14:31:40;14.90;99.90
10662;DHT22;5379;51.034;7.006;2024-02-21T14:34:09;14.90;99.90
10662;DHT22;5379;51.034;7.006;2024-02-21T14:36:36;15.00;99.90
10662;DHT22;5379;51.034;7.006;2024-02-21T14:39:03;15.30;99.90
10662;DHT22;5379;51.034;7.006;2024-02-21T14:41:30;15.40;99.90
10662;DHT22;5379;51.034;7.006;2024-02-21T14:43:57;15.20;99.90
10662;DHT22;5379;51.034;7.006;2024-02-21T14:46:25;15.20;99.90
10662;DHT22;5379;51.034;7.006;2024-02-21T14:48:53;15.30;99.90
10662;DHT22;5379;51.034;7.006;2024-02-21T14:51:22;15.20;99.90
10662;DHT22;5379;51.034;7.006;2024-02-21T14:56:26;15.10;99.90
10662;DHT22;5379;51.034;7.006;2024-02-21T14:58:53;15.00;99.90
10662;DHT22;5379;51.034;7.006;2024-02-21T15:01:19;14.90;99.90
10662;DHT22;5379;51.034;7.006;2024-02-21T15:03:46;14.90;99.90
10662;DHT22;5379;51.034;7.006;2024-02-21T15:06:13;14.90;99.90
10662;DHT22;5379;51.034;7.006;2024-02-21T15:08:41;15.00;99.90
10662;DHT22;5379;51.034;7.006;2024-02-21T15:11:08;14.90;99.90
10662;DHT22;5379;51.034;7.006;2024-02-21T15:13:35;14.90;99.90
10662;DHT22;5379;51.034;7.006;2024-02-21T15:16:03;14.90;99.90
10662;DHT22;5379;51.034;7.006;2024-02-21T15:18:30;14.80;99.90
10662;DHT22;5379;51.034;7.006;2024-02-21T15:20:58;15.00;99.90
10662;DHT22;5379;51.034;7.006;2024-02-21T15:23:25;15.10;99.90
10662;DHT22;5379;51.034;7.006;2024-02-21T15:25:53;15.00;99.90
10662;DHT22;5379;51.034;7.006;2024-02-21T15:28:20;14.90;99.90
10662;DHT22;5379;51.034;7.006;2024-02-21T15:30:47;15.00;99.90
10662;DHT22;5379;51.034;7.006;2024-02-21T15:33:14;15.00;99.90
10662;DHT22;5379;51.034;7.006;2024-02-21T15:35:41;15.00;99.90
10662;DHT22;5379;51.034;7.006;2024-02-21T15:38:08;15.00;99.90
10662;DHT22;5379;51.034;7.006;2024-02-21T15:40:35;15.00;99.90
10662;DHT22;5379;51.034;7.006;2024-02-21T15:43:03;15.20;99.90
10662;DHT22;5379;51.034;7.006;2024-02-21T15:45:30;15.00;99.90
10662;DHT22;5379;51.034;7.006;2024-02-21T15:47:57;15.10;99.90
10662;DHT22;5379;51.034;7.006;2024-02-21T15:50:23;15.00;99.90
10662;DHT22;5379;51.034;7.006;2024-02-21T15:52:53;14.90;99.90
10662;DHT22;5379;51.034;7.006;2024-02-21T15:55:20;14.80;99.90
10662;DHT22;5379;51.034;7.006;2024-02-21T15:57:47;14.70;99.90
10662;DHT22;5379;51.034;7.006;2024-02-21T16:00:16;14.90;99.90
10662;DHT22;5379;51.034;7.006;2024-02-21T16:02:43;14.80;99.90
10662;DHT22;5379;51.034;7.006;2024-02-21T16:05:10;14.80;99.90
10662;DHT22;5379;51.034;7.006;2024-02-21T16:07:37;14.80;99.90
10662;DHT22;5379;51.034;7.006;2024-02-21T16:10:05;14.70;99.90
10662;DHT22;5379;51.034;7.006;2024-02-21T16:12:32;14.50;99.80
10662;DHT22;5379;51.034;7.006;2024-02-21T16:14:59;14.30;99.80
10662;DHT22;5379;51.034;7.006;2024-02-21T16:17:27;14.30;99.80
10662;DHT22;5379;51.034;7.006;2024-02-21T16:19:54;14.30;99.90
10662;DHT22;5379;51.034;7.006;2024-02-21T16:22:21;14.20;99.90
10662;DHT22;5379;51.034;7.006;2024-02-21T16:24:48;14.20;99.90
10662;DHT22;5379;51.034;7.006;2024-02-21T16:27:15;14.20;99.90
10662;DHT22;5379;51.034;7.006;2024-02-21T16:29:42;14.10;99.90
10662;DHT22;5379;51.034;7.006;2024-02-21T16:32:08;14.10;99.90
10662;DHT22;5379;51.034;7.006;2024-02-21T16:34:37;14.60;99.90
10662;DHT22;5379;51.034;7.006;2024-02-21T16:37:04;14.60;99.90
10662;DHT22;5379;51.034;7.006;2024-02-21T16:39:31;14.40;99.90
10662;DHT22;5379;51.034;7.006;2024-02-21T16:41:58;14.30;99.90
10662;DHT22;5379;51.034;7.006;2024-02-21T16:44:28;14.30;99.90
10662;DHT22;5379;51.034;7.006;2024-02-21T16:46:56;14.30;99.90
10662;DHT22;5379;51.034;7.006;2024-02-21T16:49:23;14.40;99.90
10662;DHT22;5379;51.034;7.006;2024-02-21T16:51:52;14.40;99.90
10662;DHT22;5379;51.034;7.006;2024-02-21T16:54:23;14.40;99.90
10662;DHT22;5379;51.034;7.006;2024-02-21T16:56:51;14.30;99.90
10662;DHT22;5379;51.034;7.006;2024-02-21T16:59:18;14.20;99.90
10662;DHT22;5379;51.034;7.006;2024-02-21T17:01:44;14.10;99.90
10662;DHT22;5379;51.034;7.006;2024-02-21T17:04:14;13.90;99.90
10662;DHT22;5379;51.034;7.006;2024-02-21T17:06:41;13.90;99.90
10662;DHT22;5379;51.034;7.006;2024-02-21T17:09:09;13.80;99.90
10662;DHT22;5379;51.034;7.006;2024-02-21T17:11:38;13.80;99.90
10662;DHT22;5379;51.034;7.006;2024-02-21T17:14:05;13.70;99.90
10662;DHT22;5379;51.034;7.006;2024-02-21T17:16:32;13.70;99.90
10662;DHT22;5379;51.034;7.006;2024-02-21T17:18:59;14.00;99.90
10662;DHT22;5379;51.034;7.006;2024-02-21T17:21:26;13.90;99.90
10662;DHT22;5379;51.034;7.006;2024-02-21T17:23:53;13.80;99.90
10662;DHT22;5379;51.034;7.006;2024-02-21T17:26:21;13.80;99.90
10662;DHT22;5379;51.034;7.006;2024-02-21T17:28:49;13.70;99.90
10662;DHT22;5379;51.034;7.006;2024-02-21T17:31:16;13.90;99.90
10662;DHT22;5379;51.034;7.006;2024-02-21T17:33:43;13.90;99.90
10662;DHT22;5379;51.034;7.006;2024-02-21T17:36:11;13.80;99.90
10662;DHT22;5379;51.034;7.006;2024-02-21T17:38:38;13.60;99.90
10662;DHT22;5379;51.034;7.006;2024-02-21T17:41:04;13.70;99.90
10662;DHT22;5379;51.034;7.006;2024-02-21T17:43:33;13.50;99.90
10662;DHT22;5379;51.034;7.006;2024-02-21T17:46:00;13.50;99.90
10662;DHT22;5379;51.034;7.006;2024-02-21T17:48:27;13.60;99.90
10662;DHT22;5379;51.034;7.006;2024-02-21T17:50:54;13.70;99.90
10662;DHT22;5379;51.034;7.006;2024-02-21T17:53:21;14.30;99.90
10662;DHT22;5379;51.034;7.006;2024-02-21T17:55:48;14.40;99.90
10662;DHT22;5379;51.034;7.006;2024-02-21T17:58:15;14.60;99.90
10662;DHT22;5379;51.034;7.006;2024-02-21T18:00:43;14.40;99.90
10662;DHT22;5379;51.034;7.006;2024-02-21T18:03:10;14.50;99.90
10662;DHT22;5379;51.034;7.006;2024-02-21T18:05:37;14.40;99.90
10662;DHT22;5379;51.034;7.006;2024-02-21T18:08:05;15.20;99.90
10662;DHT22;5379;51.034;7.006;2024-02-21T18:10:32;14.80;99.90
10662;DHT22;5379;51.034;7.006;2024-02-21T18:12:59;14.60;99.90
10662;DHT22;5379;51.034;7.006;2024-02-21T18:15:28;14.70;99.90
10662;DHT22;5379;51.034;7.006;2024-02-21T18:17:57;14.20;99.90
10662;DHT22;5379;51.034;7.006;2024-02-21T18:20:24;14.20;99.90
10662;DHT22;5379;51.034;7.006;2024-02-21T18:22:50;13.60;99.90
10662;DHT22;5379;51.034;7.006;2024-02-21T18:25:18;13.70;99.90
10662;DHT22;5379;51.034;7.006;2024-02-21T18:27:46;13.50;99.90
10662;DHT22;5379;51.034;7.006;2024-02-21T18:32:40;13.80;99.90
10662;DHT22;5379;51.034;7.006;2024-02-21T18:40:06;14.10;99.90
10662;DHT22;5379;51.034;7.006;2024-02-21T18:45:05;13.80;99.90
10662;DHT22;5379;51.034;7.006;2024-02-21T18:50:00;13.40;99.90
10662;DHT22;5379;51.034;7.006;2024-02-21T18:54:56;13.10;99.90
10662;DHT22;5379;51.034;7.006;2024-02-21T19:04:44;13.00;99.90
10662;DHT22;5379;51.034;7.006;2024-02-21T19:07:11;12.80;99.90
10662;DHT22;5379;51.034;7.006;2024-02-21T19:12:08;12.70;99.90
10662;DHT22;5379;51.034;7.006;2024-02-21T19:14:35;12.70;99.90
10662;DHT22;5379;51.034;7.006;2024-02-21T19:19:29;12.80;99.90
10662;DHT22;5379;51.034;7.006;2024-02-21T19:21:56;12.90;99.90
10662;DHT22;5379;51.034;7.006;2024-02-21T19:24:22;12.70;99.90
10662;DHT22;5379;51.034;7.006;2024-02-21T19:29:18;12.60;99.90
10662;DHT22;5379;51.034;7.006;2024-02-21T19:31:45;12.50;99.90
10662;DHT22;5379;51.034;7.006;2024-02-21T19:34:12;12.40;99.90
10662;DHT22;5379;51.034;7.006;2024-02-21T19:39:08;12.60;99.90
10662;DHT22;5379;51.034;7.006;2024-02-21T19:41:35;13.10;99.90
10662;DHT22;5379;51.034;7.006;2024-02-21T19:46:31;12.70;99.90
10662;DHT22;5379;51.034;7.006;2024-02-21T19:48:57;12.70;99.90
10662;DHT22;5379;51.034;7.006;2024-02-21T19:51:25;12.70;99.90
10662;DHT22;5379;51.034;7.006;2024-02-21T19:56:19;12.60;99.90
10662;DHT22;5379;51.034;7.006;2024-02-21T19:58:46;12.70;99.90
10662;DHT22;5379;51.034;7.006;2024-02-21T20:01:16;12.40;99.90
10662;DHT22;5379;51.034;7.006;2024-02-21T20:03:43;12.50;99.90
10662;DHT22;5379;51.034;7.006;2024-02-21T20:08:37;12.50;99.90
10662;DHT22;5379;51.034;7.006;2024-02-21T20:11:04;12.30;99.90
10662;DHT22;5379;51.034;7.006;2024-02-21T20:13:32;12.30;99.90
10662;DHT22;5379;51.034;7.006;2024-02-21T20:18:29;12.40;99.90
10662;DHT22;5379;51.034;7.006;2024-02-21T20:20:56;14.10;99.90
10662;DHT22;5379;51.034;7.006;2024-02-21T20:25:50;12.30;99.90
10662;DHT22;5379;51.034;7.006;2024-02-21T20:30:45;12.40;99.90
10662;DHT22;5379;51.034;7.006;2024-02-21T20:33:12;12.60;99.90
10662;DHT22;5379;51.034;7.006;2024-02-21T20:38:08;12.30;99.90
10662;DHT22;5379;51.034;7.006;2024-02-21T20:40:35;12.30;99.90
10662;DHT22;5379;51.034;7.006;2024-02-21T20:43:02;12.70;99.90
10662;DHT22;5379;51.034;7.006;2024-02-21T20:45:31;12.40;99.90
10662;DHT22;5379;51.034;7.006;2024-02-21T20:50:25;12.30;99.90
10662;DHT22;5379;51.034;7.006;2024-02-21T20:55:22;12.20;99.90
10662;DHT22;5379;51.034;7.006;2024-02-21T20:57:50;12.00;99.90
10662;DHT22;5379;51.034;7.006;2024-02-21T21:02:48;13.60;99.90
10662;DHT22;5379;51.034;7.006;2024-02-21T21:05:16;13.80;99.90
10662;DHT22;5379;51.034;7.006;2024-02-21T21:07:46;13.10;99.90
10662;DHT22;5379;51.034;7.006;2024-02-21T21:10:17;12.70;99.90
10662;DHT22;5379;51.034;7.006;2024-02-21T21:12:44;11.80;99.90
10662;DHT22;5379;51.034;7.006;2024-02-21T21:17:38;12.40;99.90
10662;DHT22;5379;51.034;7.006;2024-02-21T21:20:06;12.50;99.90
10662;DHT22;5379;51.034;7.006;2024-02-21T21:22:39;12.40;99.90
10662;DHT22;5379;51.034;7.006;2024-02-21T21:30:07;12.10;99.90
10662;DHT22;5379;51.034;7.006;2024-02-21T21:32:34;12.30;99.90